Clifton, NJ (07011)

12:03 PM EST on January 25, 2015 (GMT -0500)
Albion Park | Change Station
CLOSE
Current Station
Personal Weather Station
Location: Clifton, NJ
Elevation: 215 ft
Nearby Weather Stations
Active Advisory: Blizzard Watch Active Notice: Record Report, Public Information Statement

Elev 215 ft 40.89 °N, 74.17 °W | Updated 0 second ago

Clear
Clear
41.4 °F
Feels Like 39 °F
N
4.0
Wind Variable Wind from West
Gusts 9.0 mph

Today
High -- | Low -- °F
--% Chance of Precip.
Yesterday
High -- | Low -- °F
Precip. -- in
7:13 AM 5:04 PM
Waxing Crescent, 34% visible
Pressure 29.75 in
Visibility 10.0 miles
Clouds Clear
Windchill 39 °F
Dew Point 23 °F
Humidity 48%
Rainfall 0.05 in
Snow Depth Not available.
UV 3 out of 12
Pollen .10 out of 12
Air Quality Not available.
Flu Activity Not available.
METAR KTEB 251651Z 30013G19KT 10SM CLR 04/M09 A2975 RMK AO2 SLP074 T00441094 $

More Conditions Fewer Conditions

Pressure 29.75 in
Visibility 10.0 miles
Clouds Clear
Windchill 39 °F
Dew Point 23 °F
Humidity 48%
Rainfall 0.05 in
Snow Depth Not available.
UV 3 out of 12
Pollen .10 out of 12
Air Quality Not available.
Flu Activity Not available.
METAR KTEB 251651Z 30013G19KT 10SM CLR 04/M09 A2975 RMK AO2 SLP074 T00441094 $

More Conditions Fewer Conditions

10-Day Weather Forecast

Almanac

Astronomy

Jan. 25, 2015 Rise Set
Actual Time
Civil Twilight
Nautical Twilight
Astronomical Twilight
Moon
Length of Visible Light
Length of Day
Tomorrow will be .
, % of the Moon is Illuminated

Today's Extremes

State Highs State Lows

Community

WunderPhotos

Upload Photos

1,789,980 photos uploaded!

WunderBlogs® & News

Nearby

Air Quality

  Air Quality AQ Index Pollutant
Not available.

Snow Depth

Station Depth Elevation

Earthquake Activity

City Distance Mag. Time & Date
Minimum magnitude displayed is 2.5.

Coastal Water Temperatures

Place Temperature

Nearby Weather Stations